createdAt,value
2023-04-19T00:00:10.394Z,10.50
2023-04-19T00:02:38.504Z,10.50
2023-04-19T00:05:07.728Z,10.50
2023-04-19T00:07:36.339Z,10.50
2023-04-19T00:10:07.043Z,10.50
2023-04-19T00:12:35.147Z,10.50
2023-04-19T00:15:03.138Z,10.50
2023-04-19T00:17:31.176Z,10.50
2023-04-19T00:19:59.244Z,10.50
2023-04-19T00:22:27.698Z,10.50
2023-04-19T00:24:55.748Z,10.50
2023-04-19T00:27:25.230Z,10.40
2023-04-19T00:29:53.346Z,10.50
2023-04-19T00:32:21.467Z,10.40
2023-04-19T00:34:49.483Z,10.40
2023-04-19T00:37:26.782Z,10.40
2023-04-19T00:39:54.810Z,10.40
2023-04-19T00:42:24.173Z,10.30
2023-04-19T00:44:52.246Z,10.30
2023-04-19T00:47:20.556Z,10.30
2023-04-19T00:49:48.626Z,10.30
2023-04-19T00:52:16.773Z,10.30
2023-04-19T00:54:46.067Z,10.20
2023-04-19T00:57:14.228Z,10.20
2023-04-19T00:59:43.802Z,10.20
2023-04-19T01:02:11.868Z,10.20
2023-04-19T01:04:40.057Z,10.10
2023-04-19T01:07:08.372Z,10.10
2023-04-19T01:09:36.414Z,10.00
2023-04-19T01:12:04.482Z,10.00
2023-04-19T01:14:32.511Z,10.00
2023-04-19T01:17:01.888Z,10.00
2023-04-19T01:19:30.024Z,10.00
2023-04-19T01:21:58.348Z,10.00
2023-04-19T01:24:27.895Z,10.00
2023-04-19T01:26:56.341Z,10.00
2023-04-19T01:29:24.439Z,9.70
2023-04-19T01:31:53.804Z,9.90
2023-04-19T01:34:23.168Z,10.00
2023-04-19T01:36:51.384Z,9.90
2023-04-19T01:39:19.387Z,9.90
2023-04-19T01:41:48.778Z,9.80
2023-04-19T01:44:16.919Z,9.70
2023-04-19T01:46:45.144Z,9.70
2023-04-19T01:49:13.220Z,9.60
2023-04-19T01:51:41.194Z,9.50
2023-04-19T01:54:09.185Z,9.50
2023-04-19T01:56:37.141Z,9.40
2023-04-19T01:59:06.610Z,9.30
2023-04-19T02:01:34.620Z,9.30
2023-04-19T02:04:04.094Z,9.30
2023-04-19T02:06:32.433Z,9.20
2023-04-19T02:09:00.435Z,9.20
2023-04-19T02:11:28.508Z,9.40
2023-04-19T02:13:56.543Z,9.20
2023-04-19T02:16:26.060Z,9.20
2023-04-19T02:18:54.357Z,9.10
2023-04-19T02:21:22.438Z,9.10
2023-04-19T02:23:50.431Z,9.10
2023-04-19T02:26:18.438Z,9.10
2023-04-19T02:28:46.418Z,9.10
2023-04-19T02:31:14.394Z,9.10
2023-04-19T02:33:43.864Z,9.20
2023-04-19T02:36:12.164Z,9.20
2023-04-19T02:38:40.134Z,9.10
2023-04-19T02:41:08.100Z,9.10
2023-04-19T02:43:36.125Z,9.10
2023-04-19T02:46:04.286Z,9.10
2023-04-19T02:48:32.329Z,9.10
2023-04-19T02:51:01.905Z,9.10
2023-04-19T02:53:29.969Z,9.10
2023-04-19T02:55:57.989Z,9.10
2023-04-19T02:58:26.487Z,9.20
2023-04-19T03:00:54.513Z,9.20
2023-04-19T03:03:22.647Z,9.10
2023-04-19T03:05:50.899Z,9.10
2023-04-19T03:08:20.283Z,9.20
2023-04-19T03:10:48.225Z,9.10
2023-04-19T03:13:16.242Z,9.10
2023-04-19T03:15:44.315Z,9.00
2023-04-19T03:18:12.409Z,9.00
2023-04-19T03:20:40.406Z,9.00
2023-04-19T03:23:08.430Z,8.90
2023-04-19T03:25:37.860Z,8.90
2023-04-19T03:28:06.177Z,8.90
2023-04-19T03:30:34.216Z,8.90
2023-04-19T03:33:02.350Z,8.90
2023-04-19T03:35:32.227Z,9.00
2023-04-19T03:38:00.243Z,8.80
2023-04-19T03:40:28.283Z,8.90
2023-04-19T03:42:57.708Z,8.90
2023-04-19T03:45:25.777Z,8.90
2023-04-19T03:47:53.855Z,8.80
2023-04-19T03:50:21.895Z,8.90
2023-04-19T03:52:49.920Z,8.80
2023-04-19T03:55:18.024Z,8.80
2023-04-19T03:57:45.982Z,8.70
2023-04-19T04:00:16.664Z,8.60
2023-04-19T04:02:44.921Z,8.50
2023-04-19T04:05:13.253Z,8.40
2023-04-19T04:07:41.262Z,8.30
2023-04-19T04:10:10.234Z,8.20
2023-04-19T04:12:38.257Z,8.20
2023-04-19T04:17:41.710Z,8.10
2023-04-19T04:20:11.903Z,8.10
2023-04-19T04:22:42.550Z,8.10
2023-04-19T04:25:12.517Z,8.00
2023-04-19T04:27:40.536Z,8.10
2023-04-19T04:30:09.698Z,8.10
2023-04-19T04:32:38.284Z,8.10
2023-04-19T04:35:09.334Z,8.30
2023-04-19T04:37:37.812Z,8.00
2023-04-19T04:40:06.816Z,7.90
2023-04-19T04:42:35.684Z,7.90
2023-04-19T04:45:03.874Z,7.80
2023-04-19T04:47:35.782Z,7.70
2023-04-19T04:50:04.263Z,7.70
2023-04-19T04:52:33.641Z,7.50
2023-04-19T04:55:01.698Z,7.50
2023-04-19T04:57:29.765Z,7.30
2023-04-19T04:59:57.807Z,7.30
2023-04-19T05:02:26.461Z,7.30
2023-04-19T05:04:54.592Z,7.20
2023-04-19T05:07:22.627Z,7.10
2023-04-19T05:09:52.094Z,7.10
2023-04-19T05:12:20.086Z,7.10
2023-04-19T05:14:48.166Z,7.20
2023-04-19T05:17:16.234Z,7.20
2023-04-19T05:19:44.443Z,7.10
2023-04-19T05:22:12.535Z,7.20
2023-04-19T05:24:42.288Z,7.10
2023-04-19T05:27:12.329Z,7.00
2023-04-19T05:29:40.439Z,6.90
2023-04-19T05:32:08.745Z,6.80
2023-04-19T05:34:37.649Z,6.80
2023-04-19T05:37:06.621Z,6.80
2023-04-19T05:39:34.705Z,6.80
2023-04-19T05:42:02.969Z,6.80
2023-04-19T05:44:32.901Z,6.80
2023-04-19T05:47:01.256Z,6.70
2023-04-19T05:49:29.447Z,6.90
2023-04-19T05:51:57.563Z,7.00
2023-04-19T05:54:25.677Z,7.00
2023-04-19T05:56:53.714Z,7.20
2023-04-19T05:59:21.752Z,7.10
2023-04-19T06:01:51.258Z,7.10
2023-04-19T06:04:19.809Z,7.10
2023-04-19T06:06:48.143Z,7.10
2023-04-19T06:09:18.151Z,7.10
2023-04-19T06:11:50.719Z,7.10
2023-04-19T06:14:19.999Z,7.10
2023-04-19T06:16:48.288Z,7.00
2023-04-19T06:19:17.903Z,7.10
2023-04-19T06:21:46.046Z,7.20
2023-04-19T06:24:14.340Z,7.30
2023-04-19T06:26:43.301Z,7.30
2023-04-19T06:29:11.345Z,7.50
2023-04-19T06:31:46.335Z,7.50
2023-04-19T06:34:14.424Z,7.60
2023-04-19T06:36:43.848Z,7.70
2023-04-19T06:39:11.869Z,7.80
2023-04-19T06:41:40.044Z,7.80
2023-04-19T06:44:08.093Z,7.80
2023-04-19T06:46:36.131Z,7.90
2023-04-19T06:49:04.234Z,8.00
2023-04-19T06:51:32.394Z,8.00
2023-04-19T06:54:01.798Z,8.10
2023-04-19T06:56:45.649Z,8.20
2023-04-19T06:59:14.539Z,8.20
2023-04-19T07:01:42.651Z,8.30
2023-04-19T07:04:11.382Z,8.50
2023-04-19T07:06:40.358Z,8.40
2023-04-19T07:09:09.839Z,8.50
2023-04-19T07:11:38.078Z,8.60
2023-04-19T07:14:06.130Z,8.60
2023-04-19T07:16:34.354Z,8.70
2023-04-19T07:19:02.408Z,8.70
2023-04-19T07:21:33.330Z,8.80
2023-04-19T07:24:02.120Z,8.80
2023-04-19T07:26:32.031Z,9.00
2023-04-19T07:29:01.167Z,9.10
2023-04-19T07:31:29.562Z,9.20
2023-04-19T07:33:57.618Z,9.30
2023-04-19T07:36:25.648Z,9.60
2023-04-19T07:38:53.740Z,9.70
2023-04-19T07:41:22.158Z,9.90
2023-04-19T07:43:51.549Z,9.80
2023-04-19T07:46:19.595Z,9.90
2023-04-19T07:48:47.836Z,10.20
2023-04-19T07:51:17.570Z,9.90
2023-04-19T07:53:47.392Z,10.00
2023-04-19T07:56:15.669Z,10.30
2023-04-19T07:58:45.151Z,10.70
2023-04-19T08:01:16.411Z,10.70
2023-04-19T08:03:44.770Z,11.00
2023-04-19T08:06:14.298Z,11.40
2023-04-19T08:08:42.412Z,11.70
2023-04-19T08:11:10.623Z,12.30
2023-04-19T08:13:39.960Z,12.50
2023-04-19T08:18:41.172Z,13.40
2023-04-19T08:21:09.356Z,13.80
2023-04-19T08:23:47.336Z,14.00
2023-04-19T08:26:16.175Z,14.20
2023-04-19T08:28:44.308Z,14.80
2023-04-19T08:31:12.720Z,15.00
2023-04-19T08:33:42.259Z,14.60
2023-04-19T08:36:11.043Z,14.60
2023-04-19T08:38:39.531Z,15.00
2023-04-19T08:41:07.629Z,15.60
2023-04-19T08:44:03.441Z,16.70
2023-04-19T08:46:33.239Z,18.50
2023-04-19T08:49:03.619Z,20.00
2023-04-19T08:51:33.423Z,20.90
2023-04-19T08:54:05.359Z,21.20
2023-04-19T08:56:35.791Z,20.70
2023-04-19T08:59:18.055Z,20.50
2023-04-19T09:01:46.727Z,19.80
2023-04-19T09:04:35.704Z,19.90
2023-04-19T09:07:04.937Z,20.90
2023-04-19T09:09:40.718Z,21.00
2023-04-19T09:12:18.795Z,21.80
2023-04-19T09:15:00.663Z,21.90
2023-04-19T09:17:30.360Z,21.70
2023-04-19T09:20:00.304Z,21.40
2023-04-19T09:22:28.611Z,22.10
2023-04-19T09:27:30.100Z,23.20
2023-04-19T09:29:59.066Z,22.80
2023-04-19T09:32:28.268Z,22.90
2023-04-19T09:34:57.748Z,23.70
2023-04-19T09:37:51.455Z,24.00
2023-04-19T09:40:25.278Z,24.80
2023-04-19T09:45:30.405Z,23.90
2023-04-19T09:48:03.366Z,22.30
2023-04-19T09:50:32.743Z,22.00
2023-04-19T09:53:03.909Z,22.10
2023-04-19T09:55:39.254Z,23.10
2023-04-19T09:58:13.251Z,24.10
2023-04-19T10:00:49.059Z,24.80
2023-04-19T10:03:22.128Z,25.20
2023-04-19T10:05:51.410Z,25.20
2023-04-19T10:08:21.235Z,25.90
2023-04-19T10:10:54.887Z,26.10
2023-04-19T10:13:26.680Z,27.10
2023-04-19T10:16:01.794Z,27.80
2023-04-19T10:18:37.138Z,28.30
2023-04-19T10:21:09.483Z,28.90
2023-04-19T10:23:39.055Z,28.80
2023-04-19T10:26:07.371Z,28.10
2023-04-19T10:28:37.971Z,26.50
2023-04-19T10:31:06.654Z,26.40
2023-04-19T10:33:37.395Z,25.80
2023-04-19T10:36:09.585Z,26.50
2023-04-19T10:38:40.299Z,27.40
2023-04-19T10:41:17.008Z,27.80
2023-04-19T10:43:47.413Z,26.80
2023-04-19T10:46:18.011Z,25.80
2023-04-19T10:48:58.042Z,25.60
2023-04-19T10:51:28.972Z,26.20
2023-04-19T10:54:00.607Z,26.70
2023-04-19T10:57:11.849Z,27.30
2023-04-19T10:59:42.966Z,27.90
2023-04-19T11:02:29.467Z,28.40
2023-04-19T11:05:03.385Z,27.90
2023-04-19T11:07:39.756Z,27.10
2023-04-19T11:10:11.738Z,26.30
2023-04-19T11:12:43.893Z,24.60
2023-04-19T11:15:12.141Z,23.10
2023-04-19T11:17:41.755Z,22.40
2023-04-19T11:20:11.829Z,23.10
2023-04-19T11:22:41.523Z,21.70
2023-04-19T11:25:13.243Z,21.80
2023-04-19T11:27:42.945Z,22.00
2023-04-19T11:30:13.500Z,20.90
2023-04-19T11:32:48.365Z,20.40
2023-04-19T11:35:19.414Z,19.90
2023-04-19T11:37:47.476Z,19.50
2023-04-19T11:40:18.423Z,19.00
2023-04-19T11:42:47.085Z,19.20
2023-04-19T11:45:29.778Z,19.50
2023-04-19T11:47:59.666Z,18.80
2023-04-19T11:50:38.973Z,18.00
2023-04-19T11:53:15.511Z,18.40
2023-04-19T11:55:46.338Z,18.10
2023-04-19T11:58:32.659Z,18.00
2023-04-19T12:01:07.061Z,17.50
2023-04-19T12:03:36.001Z,17.40
2023-04-19T12:06:09.135Z,17.50
2023-04-19T12:08:38.087Z,17.20
2023-04-19T12:11:08.064Z,17.40
2023-04-19T12:13:36.618Z,17.60
2023-04-19T12:16:05.095Z,17.70
2023-04-19T12:18:50.428Z,17.30
2023-04-19T12:21:28.427Z,17.10
2023-04-19T12:23:57.985Z,17.30
2023-04-19T12:26:28.468Z,17.40
2023-04-19T12:28:56.733Z,17.40
2023-04-19T12:31:25.074Z,17.20
2023-04-19T12:33:53.254Z,17.10
2023-04-19T12:36:21.629Z,16.80
2023-04-19T12:38:49.675Z,16.90
2023-04-19T12:41:17.691Z,16.80
2023-04-19T12:43:47.048Z,17.00
2023-04-19T12:46:15.172Z,17.30
2023-04-19T12:48:43.256Z,17.60
2023-04-19T12:51:11.396Z,18.20
2023-04-19T12:53:39.402Z,18.80
2023-04-19T12:56:07.705Z,19.40
2023-04-19T12:58:35.778Z,19.80
2023-04-19T13:01:06.192Z,20.80
2023-04-19T13:03:36.701Z,21.60
2023-04-19T13:06:05.515Z,21.70
2023-04-19T13:08:43.411Z,22.10
2023-04-19T13:11:15.206Z,21.50
2023-04-19T13:13:43.334Z,22.10
2023-04-19T13:16:12.821Z,23.00
2023-04-19T13:18:40.995Z,23.30
2023-04-19T13:21:09.016Z,22.80
2023-04-19T13:23:37.113Z,22.60
2023-04-19T13:26:05.244Z,22.50
2023-04-19T13:28:35.671Z,21.40
2023-04-19T13:31:05.088Z,19.60
2023-04-19T13:33:34.760Z,18.80
2023-04-19T13:36:02.797Z,18.20
2023-04-19T13:38:30.867Z,18.70
2023-04-19T13:40:58.983Z,19.30
2023-04-19T13:43:27.218Z,19.90
2023-04-19T13:45:55.388Z,21.10
2023-04-19T13:48:23.412Z,21.70
2023-04-19T13:50:54.904Z,22.00
2023-04-19T13:53:23.063Z,22.00
2023-04-19T13:55:52.372Z,22.90
2023-04-19T13:58:20.708Z,22.90
2023-04-19T14:00:49.106Z,23.30
2023-04-19T14:03:17.628Z,22.50
2023-04-19T14:05:46.205Z,22.30
2023-04-19T14:08:15.620Z,22.90
2023-04-19T14:10:43.720Z,24.10
2023-04-19T14:13:11.753Z,25.00
2023-04-19T14:15:39.857Z,26.10
2023-04-19T14:18:08.119Z,24.70
2023-04-19T14:20:36.249Z,24.30
2023-04-19T14:23:04.630Z,22.00
2023-04-19T14:25:34.076Z,21.00
2023-04-19T14:28:02.204Z,20.10
2023-04-19T14:30:31.190Z,19.50
2023-04-19T14:32:59.507Z,18.60
2023-04-19T14:35:27.552Z,18.30
2023-04-19T14:37:55.561Z,18.00
2023-04-19T14:40:23.936Z,17.40
2023-04-19T14:42:53.491Z,17.00
2023-04-19T14:45:22.019Z,16.60
2023-04-19T14:47:50.096Z,16.40
2023-04-19T14:50:18.241Z,16.40
2023-04-19T14:52:46.352Z,16.80
2023-04-19T14:55:14.443Z,17.30
2023-04-19T14:57:42.554Z,16.80
2023-04-19T15:00:13.384Z,16.10
2023-04-19T15:02:41.504Z,15.60
2023-04-19T15:05:10.584Z,15.30
2023-04-19T15:07:39.752Z,15.30
2023-04-19T15:10:09.021Z,15.30
2023-04-19T15:12:37.132Z,15.30
2023-04-19T15:15:06.016Z,15.20
2023-04-19T15:17:35.745Z,15.40
2023-04-19T15:20:05.621Z,15.30
2023-04-19T15:22:34.380Z,15.10
2023-04-19T15:25:02.482Z,15.30
2023-04-19T15:27:31.280Z,15.20
2023-04-19T15:29:59.371Z,15.20
2023-04-19T15:32:29.069Z,15.00
2023-04-19T15:34:58.450Z,14.80
2023-04-19T15:37:27.374Z,14.80
2023-04-19T15:39:56.163Z,15.00
2023-04-19T15:42:24.246Z,15.00
2023-04-19T15:44:52.406Z,14.80
2023-04-19T15:47:20.506Z,14.80
2023-04-19T15:49:48.490Z,14.80
2023-04-19T15:52:18.850Z,14.60
2023-04-19T15:54:47.089Z,14.60
2023-04-19T15:57:17.508Z,14.50
2023-04-19T15:59:45.520Z,14.20
2023-04-19T16:02:13.689Z,14.20
2023-04-19T16:04:41.927Z,13.90
2023-04-19T16:07:10.067Z,13.80
2023-04-19T16:09:39.788Z,13.70
2023-04-19T16:12:08.038Z,13.60
2023-04-19T16:14:36.568Z,13.30
2023-04-19T16:17:04.700Z,13.10
2023-04-19T16:19:32.780Z,13.00
2023-04-19T16:22:02.549Z,13.20
2023-04-19T16:24:30.607Z,13.40
2023-04-19T16:27:00.065Z,13.70
2023-04-19T16:29:28.254Z,14.10
2023-04-19T16:31:56.394Z,14.60
2023-04-19T16:34:25.527Z,15.00
2023-04-19T16:36:54.248Z,15.40
2023-04-19T16:39:22.305Z,15.50
2023-04-19T16:41:50.525Z,15.50
2023-04-19T16:44:20.163Z,15.40
2023-04-19T16:46:48.149Z,15.20
2023-04-19T16:49:16.819Z,14.60
2023-04-19T16:51:46.222Z,14.30
2023-04-19T16:54:14.322Z,14.00
2023-04-19T16:56:42.454Z,13.60
2023-04-19T16:59:10.689Z,13.30
2023-04-19T17:01:40.168Z,13.00
2023-04-19T17:04:08.490Z,12.90
2023-04-19T17:06:36.768Z,12.80
2023-04-19T17:09:06.172Z,12.70
2023-04-19T17:11:34.529Z,12.60
2023-04-19T17:14:02.648Z,12.60
2023-04-19T17:16:30.810Z,12.60
2023-04-19T17:19:00.416Z,12.60
2023-04-19T17:21:28.670Z,12.60
2023-04-19T17:23:56.723Z,12.50
2023-04-19T17:26:24.794Z,12.50
2023-04-19T17:28:52.822Z,12.30
2023-04-19T17:31:20.975Z,12.20
2023-04-19T17:33:49.123Z,12.00
2023-04-19T17:36:19.217Z,11.80
2023-04-19T17:38:47.320Z,11.80
2023-04-19T17:41:17.015Z,11.60
2023-04-19T17:43:45.615Z,11.50
2023-04-19T17:46:14.166Z,11.30
2023-04-19T17:48:42.454Z,11.20
2023-04-19T17:51:10.556Z,11.10
2023-04-19T17:53:40.070Z,11.00
2023-04-19T17:56:08.232Z,10.80
2023-04-19T17:58:36.495Z,10.70
2023-04-19T18:01:06.673Z,10.70
2023-04-19T18:03:35.058Z,10.60
2023-04-19T18:06:03.548Z,10.60
2023-04-19T18:08:31.784Z,10.60
2023-04-19T18:11:01.274Z,10.50
2023-04-19T18:13:29.850Z,10.40
2023-04-19T18:15:58.307Z,10.40
2023-04-19T18:18:26.515Z,10.30
2023-04-19T18:20:54.630Z,10.20
2023-04-19T18:23:22.832Z,10.10
2023-04-19T18:25:55.148Z,10.20
2023-04-19T18:28:24.951Z,10.00
2023-04-19T18:30:53.276Z,9.90
2023-04-19T18:33:21.411Z,9.80
2023-04-19T18:35:49.733Z,9.70
2023-04-19T18:38:17.883Z,9.60
2023-04-19T18:40:46.136Z,9.50
2023-04-19T18:43:14.394Z,9.40
2023-04-19T18:45:44.127Z,9.30
2023-04-19T18:48:12.639Z,9.20
2023-04-19T18:50:40.975Z,9.10
2023-04-19T18:53:09.038Z,9.00
2023-04-19T18:55:37.604Z,8.90
2023-04-19T18:58:06.137Z,8.80
2023-04-19T19:00:34.402Z,8.70
2023-04-19T19:03:04.224Z,8.60
2023-04-19T19:05:32.699Z,8.70
2023-04-19T19:08:01.394Z,8.40
2023-04-19T19:13:01.202Z,8.20
2023-04-19T19:15:29.952Z,8.20
2023-04-19T19:17:58.420Z,8.10
2023-04-19T19:20:28.140Z,8.10
2023-04-19T19:22:56.514Z,8.10
2023-04-19T19:25:24.693Z,8.10
2023-04-19T19:30:25.673Z,8.00
2023-04-19T19:32:53.926Z,7.90
2023-04-19T19:35:24.751Z,7.90
2023-04-19T19:37:54.683Z,8.10
2023-04-19T19:40:23.156Z,7.90
2023-04-19T19:42:51.337Z,7.90
2023-04-19T19:45:19.783Z,7.90
2023-04-19T19:47:49.931Z,8.00
2023-04-19T19:52:51.517Z,8.10
2023-04-19T19:55:21.075Z,8.10
2023-04-19T19:58:21.028Z,8.20
2023-04-19T20:00:46.007Z,8.30
2023-04-19T20:03:28.522Z,8.30
2023-04-19T20:06:35.261Z,8.40
2023-04-19T20:08:53.157Z,8.50
2023-04-19T20:11:22.822Z,8.60
2023-04-19T20:13:51.026Z,8.80
2023-04-19T20:16:19.712Z,9.00
2023-04-19T20:18:51.361Z,9.20
2023-04-19T20:21:20.423Z,9.20
2023-04-19T20:23:48.613Z,9.30
2023-04-19T20:26:16.743Z,9.30
2023-04-19T20:28:48.753Z,9.10
2023-04-19T20:31:16.992Z,9.10
2023-04-19T20:33:46.885Z,9.00
2023-04-19T20:36:17.427Z,9.00
2023-04-19T20:38:45.796Z,9.00
2023-04-19T20:41:14.082Z,8.90
2023-04-19T20:43:42.368Z,8.80
2023-04-19T20:46:12.364Z,8.80
2023-04-19T20:48:41.350Z,8.80
2023-04-19T20:51:09.660Z,8.80
2023-04-19T20:53:38.020Z,8.90
2023-04-19T20:56:06.240Z,9.00
2023-04-19T20:58:34.657Z,9.10
2023-04-19T21:01:02.870Z,9.10
2023-04-19T21:03:32.722Z,9.20
2023-04-19T21:06:01.437Z,9.20
2023-04-19T21:08:29.758Z,9.30
2023-04-19T21:10:57.894Z,9.20
2023-04-19T21:13:26.263Z,9.10
2023-04-19T21:15:54.497Z,9.10
2023-04-19T21:18:23.095Z,9.10
2023-04-19T21:20:52.584Z,9.20
2023-04-19T21:23:20.730Z,9.10
2023-04-19T21:25:48.925Z,9.20
2023-04-19T21:28:17.112Z,9.20
2023-04-19T21:30:45.271Z,9.40
2023-04-19T21:33:13.533Z,9.10
2023-04-19T21:35:41.836Z,9.10
2023-04-19T21:38:11.344Z,9.10
2023-04-19T21:40:39.512Z,9.00
2023-04-19T21:43:07.694Z,9.00
2023-04-19T21:45:35.885Z,9.00
2023-04-19T21:48:04.012Z,8.90
2023-04-19T21:50:32.171Z,9.00
2023-04-19T21:53:00.307Z,8.90
2023-04-19T21:55:30.144Z,8.90
2023-04-19T21:57:58.387Z,8.80
2023-04-19T22:00:26.816Z,8.80
2023-04-19T22:02:55.041Z,8.70
2023-04-19T22:05:23.259Z,8.60
2023-04-19T22:07:51.368Z,8.30
2023-04-19T22:10:19.561Z,8.40
2023-04-19T22:12:57.649Z,8.10
2023-04-19T22:15:26.608Z,8.00
2023-04-19T22:17:54.914Z,7.80
2023-04-19T22:20:24.014Z,7.70
2023-04-19T22:23:03.632Z,7.70
2023-04-19T22:25:31.782Z,7.50
2023-04-19T22:28:01.270Z,7.50
2023-04-19T22:30:29.466Z,7.30
2023-04-19T22:32:57.743Z,7.40
2023-04-19T22:35:26.040Z,7.40
2023-04-19T22:37:54.099Z,7.40
2023-04-19T22:40:22.187Z,7.40
2023-04-19T22:42:50.345Z,7.20
2023-04-19T22:45:20.075Z,7.30
2023-04-19T22:47:48.328Z,7.30
2023-04-19T22:50:16.602Z,7.30
2023-04-19T22:52:45.648Z,7.30
2023-04-19T22:55:13.842Z,7.40
2023-04-19T22:57:43.072Z,7.40
2023-04-19T23:00:11.875Z,7.40
2023-04-19T23:02:41.583Z,7.40
2023-04-19T23:05:10.615Z,7.40
2023-04-19T23:07:40.074Z,7.40
2023-04-19T23:10:10.260Z,7.40
2023-04-19T23:12:38.798Z,7.40
2023-04-19T23:15:08.508Z,7.40
2023-04-19T23:17:39.344Z,7.40
2023-04-19T23:20:11.197Z,7.30
2023-04-19T23:22:39.606Z,7.40
2023-04-19T23:25:08.934Z,7.40
2023-04-19T23:27:37.311Z,7.40
2023-04-19T23:30:07.965Z,7.40
2023-04-19T23:32:36.124Z,7.40
2023-04-19T23:35:04.393Z,7.40
2023-04-19T23:37:33.886Z,7.40
2023-04-19T23:40:01.956Z,7.40
2023-04-19T23:42:30.031Z,7.40
2023-04-19T23:44:58.228Z,7.30
2023-04-19T23:47:26.490Z,7.30
2023-04-19T23:49:54.605Z,7.30
2023-04-19T23:52:23.138Z,7.30
2023-04-19T23:54:52.685Z,7.30
2023-04-19T23:57:21.131Z,7.30
2023-04-19T23:59:49.302Z,7.30
